Time;durP1;ratioP1;P1;durP2;ratioP2;P2;SDS_P1;SDS_P2;PMS_P1;PMS_P2;Temp;Humidity;BMP_temperature;BMP_pressure;BME280_temperature;BME280_humidity;BME280_pressure;Samples;Min_cycle;Max_cycle;Signal;HPM_P1;HPM_P2
2021/07/31 00:00:01;;;;;;;16.80;7.22;;;;;;;27.50;46.14;94532.03;4967557;28;20513;-71
2021/07/31 00:02:27;;;;;;;16.33;6.80;;;;;;;27.46;46.23;94532.38;4967832;28;20027;-72
2021/07/31 00:04:52;;;;;;;13.98;6.32;;;;;;;27.50;46.04;94543.00;4967301;28;20474;-71
2021/07/31 00:07:17;;;;;;;15.57;6.82;;;;;;;27.49;46.15;94533.28;4952037;28;20031;-71
2021/07/31 00:09:43;;;;;;;17.17;6.40;;;;;;;27.46;46.11;94531.63;4948551;29;20527;-71
2021/07/31 00:12:08;;;;;;;20.98;7.38;;;;;;;27.39;46.27;94544.03;4952453;28;20039;-72
2021/07/31 00:14:34;;;;;;;12.32;6.78;;;;;;;27.37;46.57;94529.44;4967828;28;20035;-71
2021/07/31 00:17:00;;;;;;;15.10;6.60;;;;;;;27.33;46.77;94537.28;4966619;28;20031;-71
2021/07/31 00:19:25;;;;;;;17.17;6.85;;;;;;;27.35;46.54;94538.22;4950058;28;20418;-71
2021/07/31 00:21:51;;;;;;;15.30;6.38;;;;;;;27.31;47.14;94532.34;4958991;28;20045;-71
2021/07/31 00:24:16;;;;;;;14.77;6.80;;;;;;;27.25;46.63;94533.81;4967012;28;20030;-71
2021/07/31 00:26:48;;;;;;;12.70;6.55;;;;;;;27.28;47.18;94538.91;4966151;28;20027;-71
2021/07/31 00:29:13;;;;;;;18.17;7.53;;;;;;;27.22;47.34;94534.16;4950926;28;20035;-72
2021/07/31 00:31:38;;;;;;;17.55;6.47;;;;;;;27.21;47.05;94527.94;4965548;28;20050;-71
2021/07/31 00:34:04;;;;;;;16.00;6.60;;;;;;;27.19;47.26;94536.00;4967038;28;20023;-72
2021/07/31 00:36:29;;;;;;;16.00;6.80;;;;;;;27.17;47.09;94527.56;4965887;28;20027;-71
2021/07/31 00:38:55;;;;;;;14.00;6.25;;;;;;;27.15;47.38;94532.88;4950107;28;20498;-71
2021/07/31 00:41:20;;;;;;;12.20;6.40;;;;;;;27.10;47.00;94528.28;4965841;28;20031;-71
2021/07/31 00:43:46;;;;;;;12.43;6.18;;;;;;;27.17;47.23;94532.31;4967629;28;20031;-72
2021/07/31 00:46:11;;;;;;;17.52;7.00;;;;;;;26.67;47.74;94464.56;4962584;28;20027;-72
2021/07/31 00:48:37;;;;;;;12.93;5.97;;;;;;;27.15;47.66;94529.41;4930580;29;20035;-71
2021/07/31 00:51:02;;;;;;;14.93;6.35;;;;;;;27.15;47.80;94530.13;4952299;28;20031;-71
2021/07/31 00:53:28;;;;;;;16.35;6.65;;;;;;;27.12;47.61;94531.22;4967390;28;20030;-71
2021/07/31 00:55:54;;;;;;;16.63;7.10;;;;;;;27.12;48.23;94525.00;4948247;28;20046;-71
2021/07/31 00:58:19;;;;;;;15.57;6.72;;;;;;;27.11;47.96;94529.75;4950215;28;20085;-72
2021/07/31 01:00:45;;;;;;;11.95;5.75;;;;;;;27.04;48.34;94529.72;4965662;28;20022;-71
2021/07/31 01:03:10;;;;;;;15.43;6.95;;;;;;;26.89;48.06;94500.28;4967109;28;20061;-71
2021/07/31 01:05:36;;;;;;;11.93;6.57;;;;;;;27.08;48.25;94525.34;4969114;28;20026;-71
2021/07/31 01:08:01;;;;;;;14.48;7.40;;;;;;;27.08;48.05;94514.38;4970840;28;20061;-71
2021/07/31 01:10:27;;;;;;;13.13;6.10;;;;;;;27.05;47.93;94520.97;4970644;28;20880;-71
2021/07/31 01:12:55;;;;;;;15.63;6.78;;;;;;;26.69;47.61;94472.25;4969945;28;20037;-71
2021/07/31 01:15:21;;;;;;;19.50;6.95;;;;;;;26.98;48.12;94516.22;4952666;28;20027;-71
2021/07/31 01:17:46;;;;;;;15.32;7.32;;;;;;;27.01;47.90;94512.38;4969811;28;20035;-71
2021/07/31 01:20:12;;;;;;;15.02;6.38;;;;;;;27.01;47.86;94509.63;4970028;28;20034;-71
2021/07/31 01:22:37;;;;;;;16.17;6.63;;;;;;;26.95;47.29;94511.81;4968139;28;20077;-72
2021/07/31 01:25:03;;;;;;;13.90;6.82;;;;;;;26.96;47.49;94507.78;4970489;28;20026;-71
2021/07/31 01:27:29;;;;;;;15.85;6.60;;;;;;;26.99;47.58;94512.16;4968988;28;20125;-71
2021/07/31 01:29:54;;;;;;;14.70;6.68;;;;;;;26.96;47.95;94512.53;4970542;28;20023;-71
2021/07/31 01:32:20;;;;;;;18.13;6.28;;;;;;;26.84;48.31;94512.09;4969213;28;20033;-71
2021/07/31 01:34:45;;;;;;;19.02;7.45;;;;;;;26.85;48.08;94510.84;4970027;28;20054;-71
2021/07/31 01:37:10;;;;;;;16.67;7.40;;;;;;;26.78;47.96;94503.31;4969041;28;20085;-71
2021/07/31 01:39:36;;;;;;;19.60;7.03;;;;;;;26.82;47.98;94503.69;4970191;28;20027;-70
2021/07/31 01:42:01;;;;;;;13.93;7.40;;;;;;;26.84;48.27;94506.63;4968097;28;20102;-71
2021/07/31 01:44:27;;;;;;;14.55;6.65;;;;;;;26.83;48.14;94499.69;4969901;28;20034;-71
2021/07/31 01:46:52;;;;;;;14.27;7.25;;;;;;;26.80;47.94;94506.25;4941394;29;20023;-71
2021/07/31 01:49:17;;;;;;;17.60;6.80;;;;;;;26.75;48.48;94508.44;4933027;29;20027;-71
2021/07/31 01:51:43;;;;;;;15.40;7.10;;;;;;;26.76;48.21;94505.88;4959423;28;20022;-71
2021/07/31 01:54:08;;;;;;;13.27;6.45;;;;;;;26.77;48.49;94507.34;4970123;28;20026;-71
2021/07/31 01:56:34;;;;;;;19.60;8.00;;;;;;;26.79;48.06;94499.31;4967442;28;20513;-71
2021/07/31 01:59:00;;;;;;;16.90;6.82;;;;;;;26.75;48.46;94500.22;4970117;28;20085;-71
2021/07/31 02:01:26;;;;;;;16.38;7.65;;;;;;;26.69;48.25;94500.38;4968637;28;20085;-71
2021/07/31 02:03:51;;;;;;;14.48;7.15;;;;;;;26.74;48.41;94496.00;4969614;28;20081;-71
2021/07/31 02:06:17;;;;;;;14.20;7.30;;;;;;;26.78;48.13;94503.31;4968092;28;20026;-71
2021/07/31 02:08:42;;;;;;;18.92;7.53;;;;;;;26.76;48.87;94505.88;4969899;28;20035;-71
2021/07/31 02:11:10;;;;;;;13.93;6.93;;;;;;;26.61;48.46;94499.63;4968219;28;20045;-71
2021/07/31 02:13:35;;;;;;;15.85;7.18;;;;;;;26.63;49.17;94507.31;4969225;28;20015;-71
2021/07/31 02:16:01;;;;;;;19.73;7.50;;;;;;;26.63;49.14;94508.03;4949806;28;20398;-71
2021/07/31 02:18:26;;;;;;;17.08;7.15;;;;;;;26.62;49.19;94511.31;4969352;28;20035;-71
2021/07/31 02:20:52;;;;;;;14.10;6.35;;;;;;;26.55;49.35;94517.50;4966852;28;20033;-71
2021/07/31 02:23:17;;;;;;;15.23;6.85;;;;;;;26.60;49.63;94508.38;4963999;28;20031;-71
2021/07/31 02:25:43;;;;;;;16.98;7.05;;;;;;;26.63;49.31;94512.78;4968857;28;20027;-71
2021/07/31 02:28:08;;;;;;;13.57;6.70;;;;;;;26.57;49.26;94512.22;4965696;28;20031;-71
2021/07/31 02:30:34;;;;;;;15.38;7.18;;;;;;;26.54;49.28;94516.03;4969614;28;20022;-71
2021/07/31 02:32:59;;;;;;;16.95;6.90;;;;;;;26.55;49.26;94520.25;4949474;28;20035;-71
2021/07/31 02:35:24;;;;;;;17.08;7.72;;;;;;;26.57;49.37;94520.41;4968852;28;20498;-71
2021/07/31 02:37:50;;;;;;;19.08;7.78;;;;;;;26.48;49.46;94523.66;4965826;28;20426;-71
2021/07/31 02:40:16;;;;;;;16.25;7.30;;;;;;;26.43;49.99;94521.84;4969079;28;20034;-71
2021/07/31 02:42:41;;;;;;;13.60;7.30;;;;;;;26.46;49.65;94526.94;4966218;28;20026;-71
2021/07/31 02:45:07;;;;;;;16.83;7.65;;;;;;;26.49;49.86;94519.66;4969260;28;20089;-71
2021/07/31 02:47:32;;;;;;;16.00;6.80;;;;;;;26.39;50.21;94526.91;4966419;28;20513;-71
2021/07/31 02:49:58;;;;;;;15.65;7.22;;;;;;;26.39;50.30;94521.44;4930699;29;20026;-71
2021/07/31 02:52:23;;;;;;;15.95;7.07;;;;;;;26.46;50.26;94528.97;4961400;28;20026;-71
2021/07/31 02:54:49;;;;;;;14.88;7.03;;;;;;;26.47;50.34;94522.94;4967525;28;20583;-71
2021/07/31 02:57:15;;;;;;;14.77;6.97;;;;;;;26.48;50.01;94523.66;4967289;28;20106;-71
2021/07/31 02:59:40;;;;;;;17.50;7.32;;;;;;;26.36;50.20;94506.81;4951554;28;20037;-71
2021/07/31 03:02:06;;;;;;;13.13;7.10;;;;;;;26.52;50.21;94529.53;4966933;28;20033;-71
2021/07/31 03:04:31;;;;;;;15.15;7.22;;;;;;;26.54;50.25;94526.97;4968786;28;20117;-71
2021/07/31 03:06:57;;;;;;;14.75;7.70;;;;;;;26.53;50.33;94531.75;4965476;28;20053;-71
2021/07/31 03:09:25;;;;;;;16.65;8.15;;;;;;;26.44;50.42;94534.97;4968780;28;20383;-71
2021/07/31 03:11:51;;;;;;;15.75;7.70;;;;;;;26.42;50.65;94531.31;4962957;28;20034;-71
2021/07/31 03:14:16;;;;;;;14.13;8.00;;;;;;;26.43;50.68;94532.78;4968672;28;20027;-71
2021/07/31 03:16:42;;;;;;;17.45;7.03;;;;;;;26.22;50.53;94499.25;4949618;28;20472;-71
2021/07/31 03:19:07;;;;;;;16.98;7.55;;;;;;;26.42;50.60;94534.06;4968337;28;20776;-71
2021/07/31 03:21:33;;;;;;;15.07;7.47;;;;;;;26.45;50.42;94546.66;4967540;28;20108;-71
2021/07/31 03:23:58;;;;;;;11.60;7.00;;;;;;;26.42;50.33;94528.56;4951055;28;20027;-71
2021/07/31 03:26:24;;;;;;;19.08;7.65;;;;;;;26.43;50.51;94538.25;4926478;29;20051;-71
2021/07/31 03:28:49;;;;;;;18.88;7.40;;;;;;;26.41;50.62;94538.06;4948871;28;20023;-71
2021/07/31 03:31:21;;;;;;;18.35;8.02;;;;;;;26.42;50.56;94536.78;4947703;28;20035;-71
2021/07/31 03:33:47;;;;;;;18.27;7.70;;;;;;;26.44;50.95;94539.72;4948974;29;20038;-71
2021/07/31 03:36:12;;;;;;;14.95;8.20;;;;;;;26.44;51.04;94545.94;4950726;28;20028;-71
2021/07/31 03:38:38;;;;;;;16.58;7.57;;;;;;;26.44;50.87;94539.72;4968432;28;20026;-71
2021/07/31 03:41:03;;;;;;;18.60;7.28;;;;;;;26.42;51.12;94542.25;4967482;28;20019;-71
2021/07/31 03:43:29;;;;;;;15.13;7.85;;;;;;;26.41;51.34;94529.84;4930567;28;20049;-71
2021/07/31 03:45:54;;;;;;;13.25;7.47;;;;;;;26.28;51.36;94527.97;4948350;28;20020;-71
2021/07/31 03:48:20;;;;;;;15.00;7.70;;;;;;;26.35;51.25;94532.00;4964396;28;20493;-71
2021/07/31 03:50:45;;;;;;;15.55;7.18;;;;;;;26.38;51.19;94530.91;4967886;28;20082;-71
2021/07/31 03:53:11;;;;;;;14.57;8.00;;;;;;;26.37;51.56;94529.47;4966861;28;20031;-71
2021/07/31 03:55:36;;;;;;;15.65;8.23;;;;;;;26.27;51.69;94531.97;4967913;28;20042;-71
2021/07/31 03:58:03;;;;;;;16.88;7.82;;;;;;;26.23;52.11;94533.53;4966253;28;20027;-71
2021/07/31 04:00:28;;;;;;;14.98;7.30;;;;;;;26.21;51.99;94536.09;4968677;28;20125;-70
2021/07/31 04:02:53;;;;;;;13.95;7.97;;;;;;;26.23;52.11;94530.81;4970124;28;20081;-71
2021/07/31 04:05:19;;;;;;;14.00;7.80;;;;;;;26.18;52.23;94539.91;4967265;28;20490;-71
2021/07/31 04:07:44;;;;;;;17.98;8.45;;;;;;;26.10;52.59;94550.09;4967106;28;20034;-71
2021/07/31 04:10:10;;;;;;;17.80;8.30;;;;;;;26.11;52.55;94535.13;4967252;28;20022;-71
2021/07/31 04:12:36;;;;;;;15.82;7.45;;;;;;;26.14;52.51;94552.47;4949351;28;20121;-71
2021/07/31 04:15:01;;;;;;;14.57;8.10;;;;;;;26.11;52.15;94553.56;4948291;29;20038;-71
2021/07/31 04:17:26;;;;;;;16.88;8.80;;;;;;;26.02;52.30;94537.63;4948005;29;20027;-71
2021/07/31 04:19:52;;;;;;;17.88;8.30;;;;;;;26.07;52.37;94551.16;4947465;28;20123;-71
2021/07/31 04:22:17;;;;;;;17.70;7.97;;;;;;;26.06;52.46;94544.22;4962821;28;20261;-71
2021/07/31 04:24:43;;;;;;;15.30;7.55;;;;;;;26.11;52.62;94562.50;4949850;28;20035;-71
2021/07/31 04:27:08;;;;;;;16.83;8.60;;;;;;;26.16;52.36;94564.38;4966497;28;20035;-71
2021/07/31 04:29:34;;;;;;;18.08;8.88;;;;;;;26.14;52.50;94572.34;4967573;28;20031;-71
2021/07/31 04:31:59;;;;;;;23.20;9.93;;;;;;;26.13;52.80;94567.41;4948829;28;20027;-71
2021/07/31 04:34:29;;;;;;;16.83;7.88;;;;;;;26.15;53.02;94573.84;4967555;28;20027;-71
2021/07/31 04:36:54;;;;;;;16.70;7.75;;;;;;;26.20;53.04;94581.16;4966592;28;20023;-71
2021/07/31 04:39:20;;;;;;;17.08;8.52;;;;;;;26.28;53.14;94587.47;4967757;28;20031;-71
2021/07/31 04:41:45;;;;;;;16.70;8.13;;;;;;;26.25;53.45;94588.50;4971391;28;20042;-71
2021/07/31 04:44:11;;;;;;;19.55;8.20;;;;;;;26.24;53.73;94587.03;4968828;28;20035;-71
2021/07/31 04:46:36;;;;;;;16.15;8.07;;;;;;;26.21;53.75;94590.84;4970595;28;20035;-71
2021/07/31 04:49:02;;;;;;;17.40;8.10;;;;;;;26.24;53.67;94597.97;4970282;28;20035;-70
2021/07/31 04:51:27;;;;;;;19.08;8.98;;;;;;;26.24;53.81;94597.97;4969305;28;20031;-71
2021/07/31 04:53:53;;;;;;;16.85;8.85;;;;;;;26.04;53.81;94568.66;4970770;28;20061;-71
2021/07/31 04:56:18;;;;;;;18.20;8.73;;;;;;;26.27;53.92;94599.66;4969583;28;20037;-71
2021/07/31 04:58:44;;;;;;;20.75;8.73;;;;;;;26.30;53.56;94606.81;4970180;28;20422;-71
2021/07/31 05:01:09;;;;;;;19.55;9.68;;;;;;;26.32;53.78;94609.75;4970568;28;20026;-70
2021/07/31 05:03:35;;;;;;;18.08;9.18;;;;;;;25.88;53.43;94541.72;4969783;28;20046;-71
2021/07/31 05:06:04;;;;;;;18.77;9.90;;;;;;;26.33;53.28;94605.75;4970031;28;20765;-71
2021/07/31 05:08:29;;;;;;;20.67;8.95;;;;;;;26.40;52.99;94605.78;4970437;28;20485;-71
2021/07/31 05:10:54;;;;;;;22.77;9.75;;;;;;;26.43;53.21;94609.47;4969743;28;20042;-71
2021/07/31 05:13:20;;;;;;;18.92;8.55;;;;;;;26.45;53.11;94601.44;4968495;28;20089;-71
2021/07/31 05:15:47;;;;;;;16.08;8.70;;;;;;;26.52;53.23;94598.72;4970201;28;20035;-71
2021/07/31 05:18:13;;;;;;;15.27;8.68;;;;;;;26.60;52.87;94607.00;4968663;28;20122;-71
2021/07/31 05:20:42;;;;;;;21.95;8.98;;;;;;;26.66;52.85;94604.84;4970647;28;20029;-70
2021/07/31 05:23:08;;;;;;;18.92;8.45;;;;;;;26.70;52.19;94603.22;4951936;28;20031;-71
2021/07/31 05:25:33;;;;;;;19.65;9.32;;;;;;;26.73;52.16;94606.88;4970950;28;20077;-71
2021/07/31 05:27:59;;;;;;;16.73;8.98;;;;;;;26.81;52.41;94606.34;4969015;28;20035;-71
2021/07/31 05:30:24;;;;;;;22.45;9.70;;;;;;;26.83;51.98;94609.31;4970250;28;20514;-71
2021/07/31 05:32:50;;;;;;;21.38;9.52;;;;;;;26.88;51.84;94604.94;4969872;28;20039;-73
2021/07/31 05:35:15;;;;;;;17.63;8.85;;;;;;;26.97;51.93;94618.88;4951574;28;20031;-71
2021/07/31 05:37:41;;;;;;;19.20;10.13;;;;;;;27.00;52.33;94612.31;4968791;28;20066;-71
2021/07/31 05:40:07;;;;;;;24.88;10.93;;;;;;;27.00;52.28;94617.78;4969123;28;20064;-72
2021/07/31 05:42:32;;;;;;;18.20;9.82;;;;;;;26.98;52.10;94617.63;4969917;28;20129;-71
2021/07/31 05:45:01;;;;;;;25.38;10.15;;;;;;;26.87;51.99;94608.94;4968665;28;20114;-71
2021/07/31 05:47:27;;;;;;;19.33;9.13;;;;;;;26.87;52.07;94612.41;4969843;28;20482;-72
2021/07/31 05:49:56;;;;;;;21.13;9.75;;;;;;;26.86;52.08;94613.69;4969073;28;20058;-71
2021/07/31 05:52:25;;;;;;;24.90;9.70;;;;;;;26.91;51.41;94626.53;4967965;28;20093;-71
2021/07/31 05:54:51;;;;;;;19.53;9.80;;;;;;;26.91;51.57;94621.03;4967195;28;20025;-71
2021/07/31 05:57:17;;;;;;;23.55;9.65;;;;;;;26.95;51.87;94621.44;4968077;28;20282;-71
2021/07/31 05:59:42;;;;;;;26.10;10.05;;;;;;;26.95;51.77;94615.97;4969781;28;20646;-71
2021/07/31 06:02:09;;;;;;;27.45;9.88;;;;;;;27.00;51.98;94622.56;4967344;28;20034;-71
2021/07/31 06:04:35;;;;;;;23.45;8.70;;;;;;;27.00;51.67;94617.78;4969633;28;20068;-72
2021/07/31 06:07:01;;;;;;;21.52;8.70;;;;;;;27.08;51.47;94617.81;4969196;28;20469;-71
2021/07/31 06:09:26;;;;;;;22.02;9.10;;;;;;;27.12;51.40;94624.41;4969036;28;20034;-72
2021/07/31 06:11:52;;;;;;;152.55;19.13;;;;;;;27.19;51.02;94607.28;4966910;28;20149;-71
2021/07/31 06:14:18;;;;;;;39.25;10.85;;;;;;;27.28;51.29;94614.97;4969604;28;20034;-71
2021/07/31 06:16:43;;;;;;;31.10;10.05;;;;;;;27.33;51.37;94614.06;4968350;28;20567;-71
2021/07/31 06:19:08;;;;;;;24.15;9.80;;;;;;;27.32;51.56;94609.84;4968391;28;20030;-72
2021/07/31 06:21:34;;;;;;;18.40;9.38;;;;;;;27.32;51.29;94609.84;4968498;28;20034;-72
2021/07/31 06:23:59;;;;;;;22.20;9.55;;;;;;;27.07;51.67;94581.47;4969221;28;20031;-72
2021/07/31 06:26:25;;;;;;;27.45;10.48;;;;;;;27.32;51.30;94593.41;4934855;28;20027;-70
2021/07/31 06:28:50;;;;;;;20.08;9.70;;;;;;;27.38;51.53;94613.91;4969403;28;20041;-70
2021/07/31 06:31:16;;;;;;;20.63;10.20;;;;;;;27.44;51.51;94600.75;4962117;28;20026;-70
2021/07/31 06:33:41;;;;;;;18.80;8.98;;;;;;;27.51;51.59;94593.84;4950126;29;20035;-70
2021/07/31 06:36:06;;;;;;;21.15;10.20;;;;;;;27.54;51.25;94604.44;4960587;28;20035;-70
2021/07/31 06:38:41;;;;;;;24.88;9.43;;;;;;;27.58;51.29;94610.31;4961477;28;20422;-72
2021/07/31 06:41:07;;;;;;;21.75;8.52;;;;;;;27.63;51.06;94603.19;4964909;28;20034;-73
2021/07/31 06:43:32;;;;;;;18.83;8.93;;;;;;;27.65;51.84;94595.13;4959130;28;20054;-73
2021/07/31 06:45:58;;;;;;;20.65;9.32;;;;;;;27.70;51.40;94594.22;4967535;28;20038;-74
2021/07/31 06:48:23;;;;;;;19.73;9.15;;;;;;;27.74;50.58;94596.06;4963865;28;20038;-74
2021/07/31 06:50:49;;;;;;;23.13;8.75;;;;;;;27.78;50.78;94590.94;4961883;28;20024;-73
2021/07/31 06:53:14;;;;;;;19.35;8.77;;;;;;;27.84;50.09;94594.22;4961540;28;20042;-72
2021/07/31 06:55:40;;;;;;;19.95;8.90;;;;;;;27.90;49.37;94591.31;4965030;28;20026;-73
2021/07/31 06:58:05;;;;;;;15.95;9.10;;;;;;;27.99;49.29;94599.72;4959663;28;20058;-74
2021/07/31 07:00:31;;;;;;;21.92;9.02;;;;;;;28.11;48.78;94589.84;4962964;28;20513;-74
2021/07/31 07:02:56;;;;;;;21.17;8.88;;;;;;;28.23;48.12;94590.94;4960014;28;20027;-73
2021/07/31 07:05:21;;;;;;;17.45;8.65;;;;;;;28.35;47.62;94598.22;4962491;28;20033;-73
2021/07/31 07:07:47;;;;;;;22.70;8.38;;;;;;;28.38;46.66;94579.94;4955006;28;20034;-73
2021/07/31 07:10:13;;;;;;;23.65;8.90;;;;;;;28.61;46.53;94602.59;4957987;28;20023;-72
2021/07/31 07:12:38;;;;;;;18.80;8.48;;;;;;;28.70;46.88;94593.78;4962440;28;20571;-72
2021/07/31 07:15:04;;;;;;;18.95;8.52;;;;;;;28.75;46.39;94591.56;4958095;28;20030;-72
2021/07/31 07:17:30;;;;;;;15.75;8.20;;;;;;;28.76;46.74;94582.06;4955129;28;20033;-72
2021/07/31 07:19:55;;;;;;;17.75;7.43;;;;;;;28.84;46.62;94587.53;4963574;28;20015;-73
2021/07/31 07:22:21;;;;;;;18.98;8.15;;;;;;;28.91;47.05;94589.53;4951848;28;20434;-74
2021/07/31 07:24:46;;;;;;;23.13;10.10;;;;;;;28.81;47.04;94550.88;4948484;28;20030;-74
2021/07/31 07:27:11;;;;;;;22.65;9.30;;;;;;;29.12;46.36;94581.72;4939559;28;20023;-72
2021/07/31 07:29:37;;;;;;;16.75;8.43;;;;;;;29.17;46.45;94587.00;4965577;28;20026;-73
2021/07/31 07:32:05;;;;;;;17.35;8.93;;;;;;;29.21;46.66;94587.38;4965612;28;20033;-71
2021/07/31 07:34:30;;;;;;;17.58;9.45;;;;;;;29.25;46.62;94587.72;4963307;28;20237;-72
2021/07/31 07:36:56;;;;;;;16.48;8.93;;;;;;;29.34;45.96;94592.63;4944642;28;20031;-70
2021/07/31 07:39:21;;;;;;;19.10;9.48;;;;;;;29.42;45.74;94587.81;4951262;28;20046;-71
2021/07/31 07:41:47;;;;;;;16.48;9.05;;;;;;;29.49;45.46;94592.53;4953360;28;20031;-71
2021/07/31 07:44:12;;;;;;;14.93;9.02;;;;;;;29.53;45.89;94601.16;4952042;28;20019;-70
2021/07/31 07:46:38;;;;;;;18.35;10.35;;;;;;;29.59;44.76;94598.91;4968014;28;20463;-70
2021/07/31 07:49:03;;;;;;;22.73;8.85;;;;;;;29.37;43.88;94586.00;4968003;28;20505;-70
2021/07/31 07:51:29;;;;;;;18.85;9.90;;;;;;;29.25;44.78;94584.97;4967709;28;20043;-70
2021/07/31 07:53:54;;;;;;;15.93;9.20;;;;;;;29.11;44.86;94594.72;4967364;28;20469;-70
2021/07/31 07:56:20;;;;;;;464.65;142.10;;;;;;;28.92;44.78;94566.97;4967643;28;20045;-79
2021/07/31 07:58:45;;;;;;;26.98;9.15;;;;;;;29.37;43.52;94591.50;4967994;28;20027;-77
2021/07/31 08:01:11;;;;;;;19.60;8.18;;;;;;;29.42;43.15;94582.31;4967733;28;20062;-77
2021/07/31 08:03:36;;;;;;;22.73;8.20;;;;;;;29.33;42.37;94574.66;4954361;28;20055;-77
2021/07/31 08:06:02;;;;;;;24.38;7.88;;;;;;;29.25;42.01;94584.97;4967855;28;20031;-77
2021/07/31 08:08:28;;;;;;;22.75;8.77;;;;;;;29.14;42.22;94574.38;4967419;28;20089;-74
2021/07/31 08:10:53;;;;;;;24.00;8.23;;;;;;;29.00;42.60;94584.16;4967781;28;20015;-71
2021/07/31 08:13:19;;;;;;;15.70;8.20;;;;;;;29.00;41.68;94573.16;4966984;28;20034;-73
2021/07/31 08:15:44;;;;;;;22.10;8.07;;;;;;;28.93;41.41;94584.19;4966736;28;20025;-72
2021/07/31 08:18:11;;;;;;;20.67;8.25;;;;;;;28.95;41.55;94568.59;4967419;28;20031;-70
2021/07/31 08:20:36;;;;;;;14.57;7.63;;;;;;;29.03;41.63;94569.28;4967200;28;20027;-72
2021/07/31 08:23:02;;;;;;;17.75;9.00;;;;;;;28.99;41.39;94574.44;4965561;28;20089;-72
2021/07/31 08:25:27;;;;;;;15.88;7.90;;;;;;;29.17;40.98;94570.50;4965722;28;20050;-72
2021/07/31 08:27:53;;;;;;;13.38;7.70;;;;;;;29.03;40.70;94555.53;4967241;28;20391;-75
2021/07/31 08:30:18;;;;;;;13.27;7.20;;;;;;;29.05;40.46;94546.75;4966763;28;20047;-70
2021/07/31 08:32:44;;;;;;;17.27;8.45;;;;;;;29.06;40.39;94565.44;4949610;28;20037;-72
2021/07/31 08:35:10;;;;;;;13.60;7.95;;;;;;;29.00;40.42;94573.16;4965480;28;20710;-71
2021/07/31 08:37:37;;;;;;;13.90;7.53;;;;;;;28.97;39.93;94568.03;4963333;28;20089;-71
2021/07/31 08:40:03;;;;;;;14.07;7.90;;;;;;;29.03;39.98;94561.03;4965377;28;20513;-72
2021/07/31 08:42:29;;;;;;;15.32;7.28;;;;;;;28.98;39.81;94564.72;4977386;28;20501;-71
2021/07/31 08:44:54;;;;;;;15.50;8.43;;;;;;;28.67;39.91;94528.94;4954998;28;20085;-71
2021/07/31 08:47:20;;;;;;;12.77;6.90;;;;;;;28.84;40.15;94560.75;4954851;28;20030;-71
2021/07/31 08:49:45;;;;;;;13.68;7.43;;;;;;;28.79;39.46;94572.69;4949347;28;20035;-71
2021/07/31 08:52:11;;;;;;;14.77;7.80;;;;;;;28.80;39.81;94559.66;4966994;28;20039;-79
2021/07/31 08:54:37;;;;;;;10.68;6.97;;;;;;;28.71;39.22;94562.28;4949539;28;20030;-70
2021/07/31 08:57:03;;;;;;;11.07;7.43;;;;;;;28.57;39.79;94559.00;4966965;28;20121;-69
2021/07/31 08:59:28;;;;;;;14.70;7.43;;;;;;;28.64;39.25;94557.50;4966779;28;20125;-69
2021/07/31 09:01:55;;;;;;;9.93;7.10;;;;;;;28.61;39.87;94559.38;4966837;28;20053;-71
2021/07/31 09:04:20;;;;;;;14.60;7.95;;;;;;;28.52;39.62;94550.94;4966919;28;20050;-71
2021/07/31 09:06:46;;;;;;;15.10;7.15;;;;;;;28.33;40.42;94534.88;4947937;28;20473;-73
2021/07/31 09:09:11;;;;;;;16.13;7.68;;;;;;;28.40;40.11;94544.38;4947033;28;20019;-73
2021/07/31 09:12:00;;;;;;;11.45;7.38;;;;;;;28.43;39.94;94544.03;4956683;28;20027;-71
2021/07/31 09:14:25;;;;;;;13.60;6.97;;;;;;;28.50;39.84;94546.00;4958776;28;20085;-71
2021/07/31 09:16:51;;;;;;;11.55;7.47;;;;;;;28.54;39.38;94542.91;4958313;28;20031;-71
2021/07/31 09:19:17;;;;;;;11.60;7.68;;;;;;;28.49;39.35;94535.56;4957017;28;20030;-71
2021/07/31 09:21:42;;;;;;;12.23;7.20;;;;;;;28.42;39.57;94539.09;4966152;28;20053;-72
2021/07/31 09:24:21;;;;;;;11.07;7.15;;;;;;;28.28;39.22;94504.88;4966523;28;20031;-72
2021/07/31 09:26:51;;;;;;;12.98;7.30;;;;;;;28.41;38.81;94529.38;4953487;28;20054;-72
2021/07/31 09:29:26;;;;;;;10.52;7.07;;;;;;;28.41;39.01;94515.63;4969367;28;20037;-71
2021/07/31 09:31:57;;;;;;;12.70;7.15;;;;;;;28.44;39.08;94523.50;4952286;28;20062;-72
2021/07/31 09:34:32;;;;;;;13.20;7.40;;;;;;;28.54;40.38;94526.41;4968198;28;20081;-70
2021/07/31 09:37:23;;;;;;;11.27;6.78;;;;;;;28.60;41.33;94524.91;4969511;28;20027;-71
2021/07/31 09:39:58;;;;;;;10.10;7.00;;;;;;;28.64;42.62;94527.28;4969867;28;20043;-71
2021/07/31 09:42:44;;;;;;;14.32;7.20;;;;;;;28.82;44.31;94519.34;4969469;28;20486;-74
2021/07/31 09:45:13;;;;;;;12.52;7.50;;;;;;;28.94;44.73;94509.41;4953890;28;20035;-71
2021/07/31 09:47:59;;;;;;;15.40;7.05;;;;;;;29.06;45.56;94510.44;4961045;28;20030;-75
2021/07/31 09:50:44;;;;;;;10.18;7.32;;;;;;;29.09;45.67;94509.31;4969245;28;20118;-71
2021/07/31 09:53:13;;;;;;;9.82;6.25;;;;;;;29.09;45.26;94498.31;4968975;28;20038;-71
2021/07/31 09:55:46;;;;;;;11.32;6.43;;;;;;;29.13;45.86;94503.41;4966790;28;20105;-76
2021/07/31 09:58:16;;;;;;;11.73;6.55;;;;;;;29.13;45.63;94498.63;4938834;28;20023;-74
2021/07/31 10:00:45;;;;;;;10.40;6.38;;;;;;;29.12;45.76;94497.19;4968690;28;20041;-72
2021/07/31 10:03:12;;;;;;;9.23;6.47;;;;;;;29.10;45.33;94488.03;4961032;28;20114;-71
2021/07/31 10:05:39;;;;;;;11.15;6.90;;;;;;;29.14;45.87;94497.34;4968954;28;20105;-71
2021/07/31 10:08:06;;;;;;;10.00;6.55;;;;;;;29.16;46.11;94492.00;4963244;28;20513;-71
2021/07/31 10:10:31;;;;;;;9.70;6.78;;;;;;;29.13;46.17;94495.88;4962469;28;20019;-72
2021/07/31 10:12:57;;;;;;;9.80;6.70;;;;;;;29.13;46.18;94484.16;4964892;28;20662;-71
2021/07/31 10:15:22;;;;;;;8.75;5.78;;;;;;;29.10;45.81;94477.75;4960173;28;20037;-71
2021/07/31 10:17:48;;;;;;;13.05;6.93;;;;;;;29.09;46.25;94479.06;4952058;28;20026;-72
2021/07/31 10:20:31;;;;;;;9.70;6.00;;;;;;;29.03;46.24;94472.31;4960263;28;20026;-71
2021/07/31 10:22:57;;;;;;;8.88;6.30;;;;;;;29.08;46.37;94474.84;4936968;29;20031;-72
2021/07/31 10:25:23;;;;;;;10.10;6.25;;;;;;;29.09;45.60;94470.81;4959036;28;20571;-73
2021/07/31 10:27:49;;;;;;;12.18;6.47;;;;;;;29.07;44.61;94481.63;4963776;28;20030;-77
2021/07/31 10:30:28;;;;;;;9.80;6.65;;;;;;;28.90;42.90;94476.06;4950847;28;20058;-75
2021/07/31 10:32:54;;;;;;;8.90;6.00;;;;;;;28.68;42.60;94475.44;4948442;28;20439;-76
2021/07/31 10:35:26;;;;;;;10.95;6.35;;;;;;;28.59;41.13;94473.25;4915126;28;20044;-73
2021/07/31 10:37:52;;;;;;;9.60;6.53;;;;;;;28.49;41.45;94464.13;4961699;28;20421;-76
2021/07/31 10:40:26;;;;;;;7.53;5.75;;;;;;;28.41;40.74;94463.44;4952707;28;20039;-76
2021/07/31 10:42:52;;;;;;;7.70;5.88;;;;;;;28.22;39.92;94471.41;4957041;28;20035;-74
2021/07/31 10:45:23;;;;;;;8.05;5.97;;;;;;;28.07;40.28;94454.94;4964287;28;20068;-73
2021/07/31 10:47:52;;;;;;;11.05;6.00;;;;;;;28.18;39.63;94446.31;4974210;28;20054;-71
2021/07/31 10:50:24;;;;;;;8.93;6.00;;;;;;;28.15;38.76;94447.44;4987995;28;20027;-72
2021/07/31 10:52:50;;;;;;;9.18;5.60;;;;;;;28.09;39.11;94455.13;4990703;28;20302;-75
2021/07/31 10:55:15;;;;;;;10.32;5.88;;;;;;;28.16;38.45;94448.91;4964761;28;20027;-74
2021/07/31 10:57:53;;;;;;;8.35;5.63;;;;;;;28.04;37.99;94447.81;4951095;28;20086;-74
2021/07/31 11:00:25;;;;;;;7.10;5.55;;;;;;;27.93;38.24;94448.19;4965069;28;20035;-71
2021/07/31 11:02:51;;;;;;;9.55;6.18;;;;;;;27.81;38.41;94457.38;4944286;28;20031;-71
2021/07/31 11:05:17;;;;;;;9.27;5.82;;;;;;;27.83;38.18;94443.81;4961467;28;20038;-71
2021/07/31 11:07:57;;;;;;;8.20;5.50;;;;;;;27.57;37.81;94443.50;4959709;28;20487;-71
2021/07/31 11:10:42;;;;;;;8.05;5.55;;;;;;;27.46;37.77;94441.13;4957893;28;20039;-71
2021/07/31 11:13:16;;;;;;;10.65;5.68;;;;;;;27.44;37.92;94446.41;4961593;28;20039;-71
2021/07/31 11:16:04;;;;;;;8.75;5.57;;;;;;;27.44;38.72;94443.66;4957999;28;20110;-71
2021/07/31 11:18:36;;;;;;;7.45;5.53;;;;;;;27.55;39.46;94435.09;4960727;28;20407;-70
2021/07/31 11:21:08;;;;;;;10.00;5.68;;;;;;;27.71;40.09;94436.53;4954531;28;20048;-72